Weather at Dallas Fort Worth International Airport

Public forecast

Using degrees Fahrenheit for public forecast. Weather courtesy of forecast.io.

Current aviation weather report (METAR) for Dallas Fort Worth International Airport

2022/11/30 09:53 (retrieved 24 minutes ago)

KDFW 300953Z 35014KT 10SM CLR 03/M03 A3024 RMK AO2 SLP237 T00281033

Aviation forecast (TAF) for Dallas Fort Worth International Airport

2022/11/30 09:03 Ammendment (retrieved 1 hour ago)

TAF AMD KDFW 300900Z 3009/0112 36015KT P6SM SKC FM301800 03009KT P6SM SKC FM010400 08007KT P6SM SKC